Time;durP1;ratioP1;P1;durP2;ratioP2;P2;SDS_P1;SDS_P2;PMS_P1;PMS_P2;Temp;Humidity;BMP_temperature;BMP_pressure;BME280_temperature;BME280_humidity;BME280_pressure;Samples;Min_cycle;Max_cycle;Signal;HPM_P1;HPM_P2
2021/10/16 00:01:22;;;;;;;9.55;2.85;;;10.70;98.10;;;;;;4905977;29;20485;-66
2021/10/16 00:03:47;;;;;;;17.70;3.50;;;10.70;98.20;;;;;;4924382;29;20016;-66
2021/10/16 00:06:13;;;;;;;8.70;2.78;;;10.70;98.20;;;;;;4931072;29;20035;-66
2021/10/16 00:08:39;;;;;;;8.30;3.10;;;10.60;98.20;;;;;;4922792;29;20020;-65
2021/10/16 00:11:05;;;;;;;11.65;3.17;;;10.60;98.30;;;;;;4917172;29;20180;-65
2021/10/16 00:13:30;;;;;;;10.68;2.42;;;10.60;98.40;;;;;;4925260;29;20027;-66
2021/10/16 00:15:56;;;;;;;10.27;3.00;;;10.60;98.40;;;;;;4917393;29;20039;-66
2021/10/16 00:18:22;;;;;;;13.57;2.85;;;10.60;98.40;;;;;;4917115;29;20032;-65
2021/10/16 00:20:47;;;;;;;8.98;2.80;;;10.60;98.40;;;;;;4917048;29;20152;-65
2021/10/16 00:23:12;;;;;;;11.00;3.25;;;10.60;98.40;;;;;;4925374;29;20464;-66
2021/10/16 00:25:38;;;;;;;7.60;2.58;;;10.60;98.40;;;;;;4935962;29;20023;-65
2021/10/16 00:28:04;;;;;;;8.40;2.75;;;10.50;98.40;;;;;;4926161;29;20024;-65
2021/10/16 00:30:29;;;;;;;8.77;2.88;;;10.50;98.40;;;;;;4917229;29;20032;-65
2021/10/16 00:32:55;;;;;;;7.55;2.35;;;10.50;98.40;;;;;;4915992;29;20052;-66
2021/10/16 00:35:20;;;;;;;10.57;2.50;;;10.50;98.50;;;;;;4919803;29;20043;-66
2021/10/16 00:37:46;;;;;;;9.23;2.58;;;10.50;98.40;;;;;;4917576;29;20020;-65
2021/10/16 00:40:12;;;;;;;7.05;2.42;;;10.50;98.40;;;;;;4916852;29;20032;-66
2021/10/16 00:42:51;;;;;;;9.75;2.75;;;10.50;98.40;;;;;;4899955;29;20040;-66
2021/10/16 00:45:18;;;;;;;10.10;2.60;;;10.50;98.40;;;;;;4916721;29;20035;-66
2021/10/16 00:47:44;;;;;;;8.45;2.65;;;10.50;98.50;;;;;;4916498;29;20382;-66
2021/10/16 00:50:10;;;;;;;8.93;2.33;;;10.50;98.50;;;;;;4916577;29;20028;-65
2021/10/16 00:52:38;;;;;;;13.43;2.70;;;10.50;98.50;;;;;;4924984;29;20062;-65
2021/10/16 00:55:06;;;;;;;6.70;2.42;;;10.50;98.50;;;;;;4935270;29;20032;-66
2021/10/16 00:57:31;;;;;;;12.32;2.97;;;10.50;98.50;;;;;;4928668;29;20114;-66
2021/10/16 00:59:57;;;;;;;11.38;2.55;;;10.40;98.50;;;;;;4918152;29;20568;-66
2021/10/16 01:02:22;;;;;;;8.88;2.50;;;10.40;98.50;;;;;;4932632;29;20048;-66
2021/10/16 01:04:48;;;;;;;8.20;2.75;;;10.40;98.50;;;;;;4916284;29;20552;-66
2021/10/16 01:07:14;;;;;;;10.00;2.80;;;10.40;98.60;;;;;;4917060;29;20040;-65
2021/10/16 01:09:44;;;;;;;9.98;2.63;;;10.40;98.60;;;;;;4935422;29;20432;-65
2021/10/16 01:12:10;;;;;;;8.02;3.15;;;10.40;98.60;;;;;;4931555;29;20111;-65
2021/10/16 01:14:41;;;;;;;8.63;2.25;;;10.40;98.60;;;;;;4915893;29;20036;-66
2021/10/16 01:17:07;;;;;;;12.40;2.40;;;10.40;98.60;;;;;;4926981;29;20035;-66
2021/10/16 01:19:36;;;;;;;10.82;2.50;;;10.30;98.60;;;;;;4919906;29;20032;-66
2021/10/16 01:22:01;;;;;;;13.55;2.50;;;10.40;98.60;;;;;;4908759;29;20535;-66
2021/10/16 01:24:28;;;;;;;12.10;2.65;;;10.40;98.60;;;;;;4934452;29;20031;-65
2021/10/16 01:26:55;;;;;;;12.63;4.05;;;10.40;98.60;;;;;;4912576;29;20051;-65
2021/10/16 01:29:24;;;;;;;11.27;2.35;;;10.40;98.70;;;;;;4916157;29;20044;-65
2021/10/16 01:31:51;;;;;;;8.77;2.25;;;10.30;98.60;;;;;;4922489;29;20051;-66
2021/10/16 01:34:17;;;;;;;11.05;2.47;;;10.30;98.60;;;;;;4916122;29;20064;-66
2021/10/16 01:36:46;;;;;;;10.07;2.80;;;10.30;98.60;;;;;;4915540;29;20111;-66
2021/10/16 01:39:12;;;;;;;13.10;2.88;;;10.30;98.60;;;;;;4916587;29;20138;-66
2021/10/16 01:41:38;;;;;;;8.57;2.97;;;10.30;98.60;;;;;;4915561;29;20036;-66
2021/10/16 01:44:05;;;;;;;8.05;2.50;;;10.20;98.60;;;;;;4915507;29;20028;-66
2021/10/16 01:46:31;;;;;;;14.35;3.08;;;10.20;98.70;;;;;;4927773;29;20090;-66
2021/10/16 01:48:56;;;;;;;10.15;2.60;;;10.20;98.70;;;;;;4915601;29;20036;-66
2021/10/16 01:51:22;;;;;;;12.45;2.58;;;10.20;98.70;;;;;;4915408;29;20035;-66
2021/10/16 01:53:47;;;;;;;9.32;3.28;;;10.20;98.70;;;;;;4917828;29;20032;-66
2021/10/16 01:56:13;;;;;;;13.30;2.42;;;10.20;98.70;;;;;;4915189;29;20036;-66
2021/10/16 01:58:38;;;;;;;7.55;2.10;;;10.20;98.70;;;;;;4929399;29;20027;-66
2021/10/16 02:01:04;;;;;;;14.20;2.50;;;10.20;98.70;;;;;;4916236;29;20453;-66
2021/10/16 02:03:29;;;;;;;10.23;3.17;;;10.20;98.70;;;;;;4912974;29;20035;-66
2021/10/16 02:05:55;;;;;;;10.30;2.65;;;10.20;98.80;;;;;;4932364;29;20067;-66
2021/10/16 02:08:21;;;;;;;6.18;2.25;;;10.20;99.00;;;;;;4919625;29;20103;-66
2021/10/16 02:10:46;;;;;;;8.18;2.30;;;10.20;98.80;;;;;;4915132;29;20028;-66
2021/10/16 02:13:12;;;;;;;7.82;2.83;;;10.20;98.80;;;;;;4926523;29;20052;-66
2021/10/16 02:15:37;;;;;;;9.13;3.08;;;10.10;98.80;;;;;;4934198;29;20032;-66
2021/10/16 02:18:03;;;;;;;10.13;2.22;;;10.10;98.90;;;;;;4932573;29;20027;-66
2021/10/16 02:20:28;;;;;;;10.27;2.40;;;10.10;98.80;;;;;;4915584;29;20032;-66
2021/10/16 02:22:54;;;;;;;10.60;2.63;;;10.10;98.90;;;;;;4925542;29;20078;-66
2021/10/16 02:25:19;;;;;;;7.93;2.33;;;10.10;98.90;;;;;;4923968;29;20111;-66
2021/10/16 02:27:45;;;;;;;12.30;2.53;;;10.10;98.90;;;;;;4920435;29;20452;-66
2021/10/16 02:30:10;;;;;;;10.45;2.40;;;10.10;98.90;;;;;;4925729;29;20115;-66
2021/10/16 02:32:36;;;;;;;9.13;2.60;;;10.10;98.90;;;;;;4915285;29;20059;-66
2021/10/16 02:35:02;;;;;;;15.48;3.00;;;10.10;99.00;;;;;;4914895;29;20040;-66
2021/10/16 02:37:28;;;;;;;12.38;2.22;;;10.10;99.00;;;;;;4917469;29;20043;-66
2021/10/16 02:39:53;;;;;;;11.55;2.22;;;10.10;99.00;;;;;;4901552;29;20020;-67
2021/10/16 02:42:19;;;;;;;13.40;2.47;;;10.10;99.00;;;;;;4925546;29;20369;-66
2021/10/16 02:44:44;;;;;;;11.35;2.97;;;10.10;99.00;;;;;;4937979;29;20031;-66
2021/10/16 02:47:10;;;;;;;10.93;3.00;;;10.10;99.00;;;;;;4919998;29;20024;-66
2021/10/16 02:49:35;;;;;;;8.68;2.47;;;10.10;98.90;;;;;;4901607;29;20024;-66
2021/10/16 02:52:01;;;;;;;9.40;2.15;;;10.10;98.90;;;;;;4921156;29;20023;-66
2021/10/16 02:54:26;;;;;;;9.23;2.65;;;10.10;99.00;;;;;;4937820;29;20024;-66
2021/10/16 02:56:52;;;;;;;7.10;2.22;;;10.10;99.00;;;;;;4923299;29;20067;-66
2021/10/16 02:59:17;;;;;;;12.45;3.60;;;10.10;99.00;;;;;;4918665;29;20032;-66
2021/10/16 03:01:43;;;;;;;14.48;2.53;;;10.10;99.00;;;;;;4920773;29;20028;-66
2021/10/16 03:04:08;;;;;;;10.20;2.30;;;10.10;99.00;;;;;;4937357;29;20035;-66
2021/10/16 03:06:34;;;;;;;8.82;2.00;;;10.10;99.00;;;;;;4923917;29;20020;-67
2021/10/16 03:08:59;;;;;;;16.10;3.13;;;10.00;99.00;;;;;;4918483;29;20560;-66
2021/10/16 03:11:25;;;;;;;8.20;2.50;;;10.00;99.10;;;;;;4918566;29;20032;-66
2021/10/16 03:13:50;;;;;;;9.82;2.42;;;10.00;99.00;;;;;;4918424;29;20776;-66
2021/10/16 03:16:20;;;;;;;10.73;2.72;;;10.00;99.00;;;;;;4918091;29;20032;-67
2021/10/16 03:18:45;;;;;;;7.18;2.70;;;10.10;99.00;;;;;;4918321;29;20087;-66
2021/10/16 03:21:11;;;;;;;9.13;2.38;;;10.00;99.20;;;;;;4917905;29;20080;-66
2021/10/16 03:23:37;;;;;;;8.93;2.58;;;10.00;99.00;;;;;;4932420;29;20028;-66
2021/10/16 03:26:02;;;;;;;11.48;2.67;;;10.00;99.20;;;;;;4920658;29;20392;-66
2021/10/16 03:28:28;;;;;;;11.48;3.03;;;10.00;99.00;;;;;;4919546;29;20114;-66
2021/10/16 03:30:53;;;;;;;11.48;3.08;;;10.00;99.00;;;;;;4930745;29;20024;-66
2021/10/16 03:33:19;;;;;;;7.05;2.45;;;9.90;99.10;;;;;;4917429;29;20028;-66
2021/10/16 03:35:45;;;;;;;6.82;2.60;;;10.00;99.10;;;;;;4918055;29;20126;-66
2021/10/16 03:38:10;;;;;;;10.20;2.70;;;10.10;99.20;;;;;;4930234;29;20074;-66
2021/10/16 03:40:36;;;;;;;14.63;3.05;;;10.10;99.20;;;;;;4919482;29;20055;-66
2021/10/16 03:43:01;;;;;;;9.00;2.33;;;10.10;99.10;;;;;;4923046;29;20032;-66
2021/10/16 03:45:27;;;;;;;10.25;2.50;;;10.10;99.10;;;;;;4917760;29;20401;-66
2021/10/16 03:47:52;;;;;;;12.57;2.50;;;10.20;99.10;;;;;;4922634;29;20027;-67
2021/10/16 03:50:18;;;;;;;8.60;2.40;;;10.20;99.10;;;;;;4917640;29;20032;-66
2021/10/16 03:52:44;;;;;;;7.55;2.50;;;10.30;99.20;;;;;;4923719;29;20032;-66
2021/10/16 03:55:10;;;;;;;6.65;2.17;;;10.30;99.20;;;;;;4917255;29;20452;-66
2021/10/16 03:57:35;;;;;;;14.20;3.15;;;10.40;99.10;;;;;;4925095;29;20047;-66
2021/10/16 04:00:02;;;;;;;9.07;2.90;;;10.40;99.10;;;;;;4929219;29;20028;-66
2021/10/16 04:02:28;;;;;;;8.15;2.00;;;10.40;99.00;;;;;;4924175;29;20027;-66
2021/10/16 04:04:54;;;;;;;7.03;2.08;;;10.50;99.00;;;;;;4936364;29;20465;-66
2021/10/16 04:07:20;;;;;;;10.05;2.55;;;10.50;99.00;;;;;;4934005;29;20055;-66
2021/10/16 04:09:45;;;;;;;7.57;2.10;;;10.50;99.00;;;;;;4933109;29;20023;-66
2021/10/16 04:12:11;;;;;;;9.68;2.45;;;10.60;98.90;;;;;;4921696;29;20024;-66
2021/10/16 04:14:36;;;;;;;6.47;2.22;;;10.60;98.80;;;;;;4934014;29;20032;-66
2021/10/16 04:17:03;;;;;;;9.18;3.08;;;10.60;98.80;;;;;;4920018;29;20040;-66
2021/10/16 04:19:28;;;;;;;6.97;1.90;;;10.70;98.80;;;;;;4935224;29;20032;-66
2021/10/16 04:21:54;;;;;;;11.93;2.63;;;10.70;98.80;;;;;;4918840;29;20036;-66
2021/10/16 04:24:20;;;;;;;7.53;2.38;;;10.70;98.70;;;;;;4934098;29;20036;-66
2021/10/16 04:26:46;;;;;;;7.97;2.67;;;10.70;98.70;;;;;;4932038;29;20398;-66
2021/10/16 04:29:12;;;;;;;7.95;2.13;;;10.70;98.70;;;;;;4916574;29;20020;-66
2021/10/16 04:31:37;;;;;;;13.60;2.95;;;10.70;98.80;;;;;;4918333;29;20564;-67
2021/10/16 04:34:04;;;;;;;10.65;2.90;;;10.70;98.80;;;;;;4916888;29;20024;-68
2021/10/16 04:36:30;;;;;;;8.88;2.20;;;10.80;98.70;;;;;;4916159;29;20046;-68
2021/10/16 04:38:56;;;;;;;9.65;2.53;;;10.80;98.90;;;;;;4934072;29;20023;-67
2021/10/16 04:41:22;;;;;;;6.13;2.30;;;10.80;98.60;;;;;;4935962;29;20043;-66
2021/10/16 04:43:47;;;;;;;6.50;2.28;;;10.80;98.60;;;;;;4932586;29;20376;-65
2021/10/16 04:46:13;;;;;;;7.32;2.47;;;10.80;98.60;;;;;;4899791;29;20039;-65
2021/10/16 04:48:45;;;;;;;9.55;2.30;;;10.80;98.60;;;;;;4924479;29;20020;-65
2021/10/16 04:51:11;;;;;;;5.63;2.15;;;10.80;98.60;;;;;;4916158;29;20123;-65
2021/10/16 04:53:37;;;;;;;11.55;2.72;;;10.80;98.50;;;;;;4917281;29;20110;-65
2021/10/16 04:56:03;;;;;;;6.70;2.00;;;10.80;98.40;;;;;;4902682;29;20518;-65
2021/10/16 04:58:29;;;;;;;9.18;2.75;;;10.80;98.40;;;;;;4924703;29;20034;-65
2021/10/16 05:00:54;;;;;;;5.63;2.05;;;10.90;98.40;;;;;;4925784;29;20024;-66
2021/10/16 05:03:20;;;;;;;5.22;2.22;;;10.90;98.40;;;;;;4916532;29;20028;-66
2021/10/16 05:05:45;;;;;;;10.77;2.85;;;10.90;98.30;;;;;;4915924;29;20036;-66
2021/10/16 05:08:11;;;;;;;5.70;1.92;;;10.90;98.30;;;;;;4900222;29;20020;-66
2021/10/16 05:10:36;;;;;;;6.43;2.13;;;10.90;98.30;;;;;;4916166;29;20032;-66
2021/10/16 05:13:02;;;;;;;6.70;2.60;;;11.00;98.30;;;;;;4924348;29;20020;-66
2021/10/16 05:15:28;;;;;;;12.50;2.75;;;10.90;98.30;;;;;;4935086;29;20078;-67
2021/10/16 05:17:54;;;;;;;9.20;3.25;;;11.00;98.40;;;;;;4927364;29;20028;-66
2021/10/16 05:20:20;;;;;;;8.48;2.55;;;10.90;98.40;;;;;;4934632;29;20023;-67
2021/10/16 05:22:46;;;;;;;6.88;2.40;;;10.90;98.40;;;;;;4923437;29;20123;-67
2021/10/16 05:25:12;;;;;;;5.75;2.15;;;10.90;98.40;;;;;;4898471;29;20064;-67
2021/10/16 05:27:38;;;;;;;6.32;2.20;;;10.90;98.30;;;;;;4923716;29;20070;-68
2021/10/16 05:30:05;;;;;;;10.90;2.40;;;11.00;98.40;;;;;;4921411;29;20450;-67
2021/10/16 05:32:31;;;;;;;10.43;2.78;;;11.00;98.40;;;;;;4921954;29;20051;-66
2021/10/16 05:34:56;;;;;;;14.77;2.92;;;11.00;98.30;;;;;;4933243;29;20083;-68
2021/10/16 05:37:22;;;;;;;11.30;2.97;;;10.90;98.30;;;;;;4929738;29;20058;-68
2021/10/16 05:39:47;;;;;;;8.65;2.25;;;10.90;98.40;;;;;;4923752;29;20050;-65
2021/10/16 05:42:13;;;;;;;10.10;2.75;;;10.90;98.40;;;;;;4916550;29;20028;-68
2021/10/16 05:44:38;;;;;;;6.72;2.25;;;10.90;98.40;;;;;;4927707;29;20026;-68
2021/10/16 05:47:04;;;;;;;7.68;2.35;;;11.00;98.40;;;;;;4926447;29;20569;-68
2021/10/16 05:49:29;;;;;;;11.68;4.03;;;11.00;98.40;;;;;;4918158;29;20039;-68
2021/10/16 05:51:55;;;;;;;4.50;2.10;;;11.00;98.40;;;;;;4922001;29;20031;-68
2021/10/16 05:54:20;;;;;;;11.40;2.78;;;11.00;98.50;;;;;;4901248;29;20028;-68
2021/10/16 05:56:46;;;;;;;9.50;2.72;;;10.90;98.40;;;;;;4923755;29;20117;-68
2021/10/16 05:59:11;;;;;;;11.38;2.60;;;10.90;98.50;;;;;;4931300;29;20032;-68
2021/10/16 06:01:37;;;;;;;15.90;2.78;;;11.00;98.50;;;;;;4925067;29;20519;-68
2021/10/16 06:04:02;;;;;;;11.70;2.83;;;11.00;98.50;;;;;;4909216;29;20504;-68
2021/10/16 06:06:28;;;;;;;7.00;2.72;;;11.00;98.40;;;;;;4915278;29;20024;-68
2021/10/16 06:08:53;;;;;;;16.25;3.08;;;11.00;98.40;;;;;;4932363;29;20621;-68
2021/10/16 06:11:19;;;;;;;11.82;3.72;;;11.00;98.40;;;;;;4935034;29;20023;-68
2021/10/16 06:13:45;;;;;;;8.57;2.83;;;11.00;98.70;;;;;;4923609;29;20128;-68
2021/10/16 06:16:10;;;;;;;8.40;2.83;;;11.00;98.50;;;;;;4938087;29;20396;-68
2021/10/16 06:18:36;;;;;;;10.32;2.75;;;11.10;98.60;;;;;;4931847;29;20023;-68
2021/10/16 06:21:03;;;;;;;8.50;2.47;;;11.10;98.60;;;;;;4938220;29;20193;-68
2021/10/16 06:23:29;;;;;;;9.45;2.58;;;11.10;98.60;;;;;;4921888;29;20028;-68
2021/10/16 06:25:55;;;;;;;8.70;2.75;;;11.10;98.70;;;;;;4931464;29;20028;-68
2021/10/16 06:28:20;;;;;;;9.43;2.70;;;11.10;98.70;;;;;;4936208;29;20036;-70
2021/10/16 06:30:46;;;;;;;10.00;3.22;;;11.20;98.70;;;;;;4925320;29;20070;-69
2021/10/16 06:33:12;;;;;;;13.57;2.67;;;11.20;98.80;;;;;;4920429;29;20024;-69
2021/10/16 06:35:38;;;;;;;11.35;2.95;;;11.20;98.80;;;;;;4925032;29;20118;-69
2021/10/16 06:38:04;;;;;;;11.35;2.88;;;11.20;98.80;;;;;;4923265;29;20067;-69
2021/10/16 06:40:30;;;;;;;7.53;3.03;;;11.20;98.90;;;;;;4926890;29;20489;-69
2021/10/16 06:42:56;;;;;;;12.02;3.33;;;11.20;99.00;;;;;;4925047;29;20497;-69
2021/10/16 06:45:21;;;;;;;10.00;3.05;;;11.20;99.00;;;;;;4907080;29;20091;-69
2021/10/16 06:47:47;;;;;;;12.15;2.63;;;11.20;99.10;;;;;;4923839;29;20392;-69
2021/10/16 06:50:13;;;;;;;9.50;3.35;;;11.30;99.10;;;;;;4917685;29;20040;-68
2021/10/16 06:52:38;;;;;;;9.98;3.45;;;11.30;99.10;;;;;;4931416;29;20031;-69
2021/10/16 06:55:04;;;;;;;9.45;3.38;;;11.30;99.20;;;;;;4913623;29;20124;-69
2021/10/16 06:57:30;;;;;;;7.63;2.58;;;11.30;99.10;;;;;;4933872;29;20036;-69
2021/10/16 06:59:55;;;;;;;6.80;2.53;;;11.40;99.10;;;;;;4931906;29;20350;-69
2021/10/16 07:02:21;;;;;;;11.50;3.25;;;11.40;99.00;;;;;;4929227;29;20127;-69
2021/10/16 07:04:47;;;;;;;12.07;2.95;;;11.40;98.90;;;;;;4925312;29;20040;-67
2021/10/16 07:07:12;;;;;;;5.43;2.53;;;11.40;99.00;;;;;;4921380;29;20027;-68
2021/10/16 07:09:38;;;;;;;11.65;3.55;;;11.30;99.00;;;;;;4917849;29;20067;-65
2021/10/16 07:12:03;;;;;;;10.80;3.20;;;11.30;99.00;;;;;;4926094;29;20171;-68
2021/10/16 07:14:29;;;;;;;11.55;2.78;;;11.30;99.00;;;;;;4926576;29;20032;-67
2021/10/16 07:16:54;;;;;;;8.13;3.30;;;11.20;99.10;;;;;;4923592;29;20178;-67
2021/10/16 07:19:20;;;;;;;14.38;2.95;;;11.20;99.10;;;;;;4918057;29;20024;-67
2021/10/16 07:21:48;;;;;;;10.32;3.42;;;11.20;99.00;;;;;;4922461;29;20561;-66
2021/10/16 07:24:14;;;;;;;8.23;3.28;;;11.30;99.00;;;;;;4924569;29;20031;-68
2021/10/16 07:26:40;;;;;;;13.63;3.50;;;11.20;98.90;;;;;;4933203;29;20121;-68
2021/10/16 07:29:14;;;;;;;;;;;11.20;98.90;;;;;;4926523;29;20039;-66
2021/10/16 07:31:40;;;;;;;10.80;3.20;;;11.20;98.90;;;;;;4924662;29;19923;-66
2021/10/16 07:34:05;;;;;;;9.70;3.25;;;11.20;98.90;;;;;;4923944;29;20066;-66
2021/10/16 07:36:40;;;;;;;8.23;3.15;;;11.20;99.00;;;;;;4893123;29;20092;-66
2021/10/16 07:39:07;;;;;;;10.63;3.83;;;11.20;99.10;;;;;;4922168;29;20042;-66
2021/10/16 07:41:34;;;;;;;11.60;4.03;;;11.20;99.10;;;;;;4927928;29;20028;-66
2021/10/16 07:43:59;;;;;;;11.13;3.38;;;11.20;99.10;;;;;;4927963;29;20063;-66
2021/10/16 07:46:25;;;;;;;11.32;3.83;;;11.30;99.10;;;;;;4926453;29;20059;-67
2021/10/16 07:48:50;;;;;;;9.35;3.67;;;11.30;99.10;;;;;;4920933;29;20024;-66
2021/10/16 07:51:16;;;;;;;9.88;3.38;;;11.30;99.20;;;;;;4910773;29;20031;-66
2021/10/16 07:53:42;;;;;;;13.73;3.35;;;11.40;99.20;;;;;;4904301;29;20020;-66
2021/10/16 07:56:07;;;;;;;8.90;3.30;;;11.40;99.20;;;;;;4929180;29;20040;-67
2021/10/16 07:58:33;;;;;;;13.05;3.90;;;11.40;99.20;;;;;;4926798;29;20079;-67
2021/10/16 08:00:58;;;;;;;11.18;3.47;;;11.50;99.20;;;;;;4933381;29;20080;-67
2021/10/16 08:03:24;;;;;;;9.65;3.67;;;11.50;99.20;;;;;;4905971;29;20477;-67
2021/10/16 08:05:50;;;;;;;9.15;3.50;;;11.60;99.30;;;;;;4918364;29;20024;-67
2021/10/16 08:08:15;;;;;;;10.00;3.15;;;11.70;99.30;;;;;;4928823;29;20106;-68
2021/10/16 08:10:41;;;;;;;9.35;4.25;;;11.80;99.40;;;;;;4930017;29;20032;-67
2021/10/16 08:13:07;;;;;;;8.55;2.85;;;11.90;99.30;;;;;;4906343;29;20171;-67
2021/10/16 08:15:34;;;;;;;8.55;2.85;;;12.00;99.20;;;;;;4931477;29;20050;-66
2021/10/16 08:18:00;;;;;;;10.50;2.92;;;12.00;99.00;;;;;;4900345;29;20078;-67
2021/10/16 08:20:26;;;;;;;8.80;2.92;;;12.10;98.90;;;;;;4916993;29;20456;-68
2021/10/16 08:22:52;;;;;;;13.02;4.00;;;12.20;98.80;;;;;;4924098;29;20016;-66
2021/10/16 08:25:17;;;;;;;7.18;3.00;;;12.30;98.70;;;;;;4938881;29;20031;-68
2021/10/16 08:27:46;;;;;;;8.45;3.10;;;12.40;98.70;;;;;;4921455;29;20114;-67
2021/10/16 08:30:12;;;;;;;6.47;2.85;;;12.40;98.60;;;;;;4929481;29;20127;-67
2021/10/16 08:32:39;;;;;;;8.77;3.20;;;12.40;98.50;;;;;;4922018;29;20118;-68
2021/10/16 08:35:05;;;;;;;8.45;3.45;;;12.50;98.50;;;;;;4921500;28;20028;-67
2021/10/16 08:37:30;;;;;;;10.05;3.08;;;12.60;98.40;;;;;;4925561;29;20119;-67
2021/10/16 08:39:56;;;;;;;7.25;2.70;;;12.60;98.20;;;;;;4933653;29;20510;-67
2021/10/16 08:42:21;;;;;;;8.85;3.42;;;12.70;98.20;;;;;;4906965;29;20036;-67
2021/10/16 08:44:47;;;;;;;8.60;2.78;;;12.80;98.10;;;;;;4915811;29;20032;-67
2021/10/16 08:47:13;;;;;;;7.72;2.35;;;12.90;98.00;;;;;;4919778;29;20505;-68
2021/10/16 08:49:44;;;;;;;10.45;3.38;;;13.00;98.00;;;;;;4924713;29;20044;-67
2021/10/16 08:52:09;;;;;;;13.38;2.85;;;13.00;97.80;;;;;;4929392;29;20032;-67
2021/10/16 08:54:39;;;;;;;7.72;2.60;;;13.10;97.80;;;;;;4902965;29;20107;-68
2021/10/16 08:57:05;;;;;;;8.20;2.88;;;13.20;97.70;;;;;;4917815;29;20052;-67
2021/10/16 08:59:31;;;;;;;9.85;2.85;;;13.20;97.70;;;;;;4924167;29;20039;-67
2021/10/16 09:02:02;;;;;;;11.45;2.90;;;13.30;97.60;;;;;;4921464;29;20389;-67
2021/10/16 09:04:29;;;;;;;9.32;2.38;;;13.30;97.40;;;;;;4916496;29;20036;-67
2021/10/16 09:06:55;;;;;;;10.32;2.92;;;13.40;97.40;;;;;;4923627;29;20040;-67
2021/10/16 09:09:31;;;;;;;9.32;2.72;;;13.50;97.20;;;;;;4915647;29;20388;-68
2021/10/16 09:11:57;;;;;;;6.03;2.63;;;13.50;97.10;;;;;;4917375;29;20032;-66
2021/10/16 09:14:27;;;;;;;9.60;2.75;;;13.50;97.00;;;;;;4927007;29;20020;-68
2021/10/16 09:16:58;;;;;;;7.97;2.75;;;13.60;97.10;;;;;;4917247;29;20047;-68
2021/10/16 09:19:31;;;;;;;10.80;3.30;;;13.60;96.90;;;;;;4919883;29;20036;-68
2021/10/16 09:21:59;;;;;;;15.50;3.92;;;13.60;96.90;;;;;;4927208;29;20030;-69
2021/10/16 09:24:35;;;;;;;6.60;3.08;;;13.60;96.80;;;;;;4916099;29;20504;-71
2021/10/16 09:27:05;;;;;;;8.27;2.80;;;13.70;96.70;;;;;;4915806;29;20047;-69
2021/10/16 09:29:33;;;;;;;6.85;2.30;;;13.70;96.60;;;;;;4905458;29;20397;-70
2021/10/16 09:32:04;;;;;;;8.73;2.30;;;13.80;96.40;;;;;;4916569;29;20052;-69
2021/10/16 09:34:35;;;;;;;7.43;2.72;;;13.80;96.10;;;;;;4915692;29;20036;-68
2021/10/16 09:37:08;;;;;;;5.65;2.20;;;13.80;96.00;;;;;;4918365;29;20039;-68
2021/10/16 09:39:37;;;;;;;10.45;2.50;;;13.90;96.00;;;;;;4935136;29;20385;-69
2021/10/16 09:42:05;;;;;;;5.43;2.22;;;13.90;95.80;;;;;;4928827;29;20032;-68
2021/10/16 09:44:34;;;;;;;8.25;2.47;;;13.90;95.60;;;;;;4915271;29;20043;-68
2021/10/16 09:47:17;;;;;;;5.38;2.30;;;13.90;95.30;;;;;;4916739;29;20034;-69
2021/10/16 09:49:47;;;;;;;7.65;2.28;;;14.00;95.20;;;;;;4934792;29;20527;-69
2021/10/16 09:52:15;;;;;;;6.78;2.08;;;14.00;95.10;;;;;;4918212;29;20087;-69
2021/10/16 09:54:43;;;;;;;5.47;2.05;;;14.10;95.10;;;;;;4915647;29;20024;-68
2021/10/16 09:57:11;;;;;;;8.50;3.05;;;14.10;95.00;;;;;;4923323;29;20119;-69
2021/10/16 09:59:39;;;;;;;4.95;2.22;;;14.10;94.70;;;;;;4915369;29;20024;-68
2021/10/16 10:02:06;;;;;;;8.48;2.60;;;14.20;94.40;;;;;;4926750;29;20039;-68
2021/10/16 10:04:40;;;;;;;7.50;2.22;;;14.10;94.20;;;;;;4915361;29;20029;-68
2021/10/16 10:07:06;;;;;;;9.10;2.28;;;14.10;94.00;;;;;;4925085;29;20035;-68
2021/10/16 10:09:33;;;;;;;9.18;2.90;;;14.10;94.00;;;;;;4934582;29;20484;-68
2021/10/16 10:12:00;;;;;;;5.55;2.22;;;14.10;94.10;;;;;;4922385;29;20032;-69
2021/10/16 10:14:26;;;;;;;6.97;2.28;;;14.10;94.10;;;;;;4917088;29;20051;-68
2021/10/16 10:16:54;;;;;;;6.13;2.63;;;14.10;94.10;;;;;;4932320;29;20412;-68
2021/10/16 10:19:21;;;;;;;5.60;2.90;;;14.10;94.10;;;;;;4926162;29;20063;-68
2021/10/16 10:21:46;;;;;;;5.32;2.05;;;14.10;94.10;;;;;;4916887;29;20043;-69
2021/10/16 10:24:12;;;;;;;7.93;2.53;;;14.20;94.00;;;;;;4931692;29;20039;-69
2021/10/16 10:26:43;;;;;;;5.70;2.15;;;14.30;93.90;;;;;;4914664;29;20048;-69
2021/10/16 10:29:13;;;;;;;4.43;2.17;;;14.30;94.00;;;;;;4933965;29;20024;-68
2021/10/16 10:31:44;;;;;;;11.40;2.03;;;14.40;93.90;;;;;;4921157;29;20576;-68
2021/10/16 10:34:24;;;;;;;8.45;2.38;;;14.40;93.60;;;;;;4916398;29;20536;-69
2021/10/16 10:36:58;;;;;;;4.70;2.03;;;14.50;93.60;;;;;;4931745;29;20139;-69
2021/10/16 10:39:33;;;;;;;7.40;2.35;;;14.60;93.50;;;;;;4925783;29;20032;-69
2021/10/16 10:42:21;;;;;;;4.78;2.17;;;14.60;93.30;;;;;;4914729;29;20476;-69
2021/10/16 10:44:53;;;;;;;4.13;1.90;;;14.60;93.30;;;;;;4898330;29;20032;-69
2021/10/16 10:47:33;;;;;;;6.10;1.85;;;14.60;93.20;;;;;;4920348;29;20039;-69
2021/10/16 10:50:05;;;;;;;6.30;1.77;;;14.70;93.10;;;;;;4934434;29;20092;-68
2021/10/16 10:52:56;;;;;;;6.85;2.20;;;14.70;92.80;;;;;;4929079;29;20127;-69
2021/10/16 10:55:22;;;;;;;6.18;1.75;;;14.60;92.80;;;;;;4915183;29;20040;-69
2021/10/16 10:57:59;;;;;;;5.65;2.55;;;14.70;92.70;;;;;;4915434;29;20042;-69
2021/10/16 11:00:28;;;;;;;7.00;2.25;;;14.70;92.50;;;;;;4919146;29;20040;-69
2021/10/16 11:02:54;;;;;;;5.82;2.15;;;14.70;92.50;;;;;;4921229;29;20080;-69
2021/10/16 11:05:33;;;;;;;7.07;2.25;;;14.70;92.50;;;;;;4917119;29;20468;-69
2021/10/16 11:08:08;;;;;;;5.47;2.40;;;14.70;92.30;;;;;;4920803;29;20032;-69
2021/10/16 11:10:34;;;;;;;5.50;2.05;;;14.80;92.10;;;;;;4927337;29;20080;-68
2021/10/16 11:13:11;;;;;;;4.70;2.00;;;14.80;91.60;;;;;;4918710;29;20429;-69
2021/10/16 11:15:38;;;;;;;15.30;3.30;;;14.80;91.50;;;;;;4928402;29;20043;-69
2021/10/16 11:18:19;;;;;;;5.53;1.80;;;14.80;91.60;;;;;;4924520;29;20068;-69
2021/10/16 11:20:44;;;;;;;4.35;1.33;;;14.80;91.50;;;;;;4918894;29;20347;-68
2021/10/16 11:23:17;;;;;;;5.20;2.63;;;14.80;91.20;;;;;;4944401;29;20090;-69
2021/10/16 11:25:55;;;;;;;4.40;1.80;;;14.80;91.00;;;;;;4942140;29;20548;-68
2021/10/16 11:28:21;;;;;;;3.90;1.50;;;14.80;90.90;;;;;;4925120;29;20119;-70
2021/10/16 11:30:49;;;;;;;5.25;1.63;;;14.80;90.60;;;;;;4934565;29;20115;-69
2021/10/16 11:33:20;;;;;;;12.15;2.00;;;14.90;90.50;;;;;;4928512;29;20429;-68
2021/10/16 11:35:48;;;;;;;3.47;1.40;;;14.90;90.40;;;;;;4917446;29;20071;-69
2021/10/16 11:38:16;;;;;;;4.40;1.75;;;15.00;90.20;;;;;;4917345;29;20056;-68
2021/10/16 11:40:42;;;;;;;5.13;1.75;;;15.10;90.00;;;;;;4917874;29;20123;-70
2021/10/16 11:43:15;;;;;;;5.43;1.20;;;15.20;90.10;;;;;;4919714;29;20046;-70
2021/10/16 11:45:43;;;;;;;3.20;1.70;;;15.20;89.70;;;;;;4912700;29;20095;-68
2021/10/16 11:48:11;;;;;;;3.95;1.50;;;15.30;89.40;;;;;;4929786;29;20040;-70
2021/10/16 11:50:42;;;;;;;3.80;1.35;;;15.30;89.10;;;;;;4935777;29;20036;-69
2021/10/16 11:53:19;;;;;;;4.20;1.52;;;15.30;89.10;;;;;;4905093;29;20028;-68
2021/10/16 11:55:49;;;;;;;4.25;1.40;;;15.30;88.10;;;;;;4917128;29;20087;-69
2021/10/16 11:58:18;;;;;;;4.68;1.52;;;15.40;87.80;;;;;;4930023;29;20024;-69
2021/10/16 12:00:45;;;;;;;4.88;2.00;;;15.40;87.50;;;;;;4933066;29;20035;-68
2021/10/16 12:03:17;;;;;;;3.00;1.67;;;15.30;87.30;;;;;;4934136;29;20523;-69
2021/10/16 12:05:45;;;;;;;6.32;2.10;;;15.30;87.10;;;;;;4933014;29;20042;-68
2021/10/16 12:08:17;;;;;;;4.65;2.00;;;15.40;87.40;;;;;;4922736;29;20028;-69
2021/10/16 12:10:57;;;;;;;6.63;1.95;;;15.40;87.50;;;;;;4917068;29;20031;-69
2021/10/16 12:13:40;;;;;;;4.65;1.83;;;15.40;87.60;;;;;;4904469;29;20029;-70
2021/10/16 12:16:17;;;;;;;5.15;2.08;;;15.40;87.60;;;;;;4916810;29;20044;-70
2021/10/16 12:19:01;;;;;;;5.68;1.90;;;15.50;87.40;;;;;;4932710;29;20032;-69
2021/10/16 12:21:35;;;;;;;7.63;1.98;;;15.50;87.30;;;;;;4934986;29;20024;-69
2021/10/16 12:24:22;;;;;;;5.32;1.75;;;15.50;87.10;;;;;;4919988;29;20046;-69
2021/10/16 12:27:01;;;;;;;5.00;2.03;;;15.50;86.70;;;;;;4917704;29;20039;-70
2021/10/16 12:29:29;;;;;;;5.75;1.80;;;15.60;86.50;;;;;;4934602;29;20035;-70
2021/10/16 12:31:55;;;;;;;5.10;2.33;;;15.60;86.40;;;;;;4912402;29;20059;-70
2021/10/16 12:34:23;;;;;;;6.18;1.80;;;15.60;85.50;;;;;;4934658;29;20036;-70
2021/10/16 12:36:58;;;;;;;6.13;2.05;;;15.60;85.80;;;;;;4918442;29;20044;-70
2021/10/16 12:39:45;;;;;;;8.82;1.83;;;15.60;85.60;;;;;;4916817;29;20035;-70
2021/10/16 12:42:14;;;;;;;6.93;2.28;;;15.60;86.30;;;;;;4920390;29;20032;-70
2021/10/16 12:44:43;;;;;;;5.78;2.00;;;15.60;86.20;;;;;;4918736;29;20037;-71